sensor_id;sensor_type;location;lat;lon;timestamp;noise_LAeq;noise_LA_min;noise_LA_max;noise_LA01;noise_LA95
36217;Laerm;22259;48.792;8.964;2023-02-23T00:01:21;41.82;38.98;44.03;;
36217;Laerm;22259;48.792;8.964;2023-02-23T00:03:47;41.16;38.63;44.76;;
36217;Laerm;22259;48.792;8.964;2023-02-23T00:06:14;41.82;39.28;48.10;;
36217;Laerm;22259;48.792;8.964;2023-02-23T00:08:39;41.83;39.21;43.82;;
36217;Laerm;22259;48.792;8.964;2023-02-23T00:11:07;41.62;39.34;44.16;;
36217;Laerm;22259;48.792;8.964;2023-02-23T00:13:33;41.04;38.92;47.32;;
36217;Laerm;22259;48.792;8.964;2023-02-23T00:16:14;41.41;38.92;46.18;;
36217;Laerm;22259;48.792;8.964;2023-02-23T00:18:44;41.13;37.88;47.59;;
36217;Laerm;22259;48.792;8.964;2023-02-23T00:21:22;40.99;38.60;45.10;;
36217;Laerm;22259;48.792;8.964;2023-02-23T00:23:49;41.33;37.88;46.88;;
36217;Laerm;22259;48.792;8.964;2023-02-23T00:26:15;41.78;39.40;45.42;;
36217;Laerm;22259;48.792;8.964;2023-02-23T00:28:43;41.23;39.02;49.65;;
36217;Laerm;22259;48.792;8.964;2023-02-23T00:31:09;41.26;37.27;48.99;;
36217;Laerm;22259;48.792;8.964;2023-02-23T00:33:35;41.19;38.56;48.46;;
36217;Laerm;22259;48.792;8.964;2023-02-23T00:36:04;41.45;38.41;50.27;;
36217;Laerm;22259;48.792;8.964;2023-02-23T00:38:30;41.02;38.41;51.61;;
36217;Laerm;22259;48.792;8.964;2023-02-23T00:41:03;42.32;39.55;51.02;;
36217;Laerm;22259;48.792;8.964;2023-02-23T00:43:32;42.24;39.08;53.05;;
36217;Laerm;22259;48.792;8.964;2023-02-23T00:45:57;41.56;39.02;52.09;;
36217;Laerm;22259;48.792;8.964;2023-02-23T00:48:23;41.62;38.78;50.71;;
36217;Laerm;22259;48.792;8.964;2023-02-23T00:50:56;42.27;39.49;52.01;;
36217;Laerm;22259;48.792;8.964;2023-02-23T00:53:21;42.05;39.08;52.05;;
36217;Laerm;22259;48.792;8.964;2023-02-23T00:55:47;41.26;38.71;49.27;;
36217;Laerm;22259;48.792;8.964;2023-02-23T00:58:12;41.42;38.05;46.77;;
36217;Laerm;22259;48.792;8.964;2023-02-23T01:00:38;41.93;38.52;45.31;;
36217;Laerm;22259;48.792;8.964;2023-02-23T01:03:06;41.36;38.05;47.06;;
36217;Laerm;22259;48.792;8.964;2023-02-23T01:05:34;40.47;37.07;44.50;;
36217;Laerm;22259;48.792;8.964;2023-02-23T01:08:00;41.75;38.78;45.10;;
36217;Laerm;22259;48.792;8.964;2023-02-23T01:10:25;41.04;38.67;45.03;;
36217;Laerm;22259;48.792;8.964;2023-02-23T01:12:51;41.76;39.08;45.28;;
36217;Laerm;22259;48.792;8.964;2023-02-23T01:15:16;42.88;40.41;49.46;;
36217;Laerm;22259;48.792;8.964;2023-02-23T01:17:42;42.56;39.70;45.64;;
36217;Laerm;22259;48.792;8.964;2023-02-23T01:20:09;42.32;39.43;45.72;;
36217;Laerm;22259;48.792;8.964;2023-02-23T01:22:45;42.24;39.67;45.02;;
36217;Laerm;22259;48.792;8.964;2023-02-23T01:25:10;41.93;39.18;46.30;;
36217;Laerm;22259;48.792;8.964;2023-02-23T01:27:37;41.51;39.08;45.70;;
36217;Laerm;22259;48.792;8.964;2023-02-23T01:30:02;42.25;39.37;47.54;;
36217;Laerm;22259;48.792;8.964;2023-02-23T01:32:28;42.05;39.43;45.36;;
36217;Laerm;22259;48.792;8.964;2023-02-23T01:34:53;42.08;39.49;44.22;;
36217;Laerm;22259;48.792;8.964;2023-02-23T01:37:18;42.10;39.34;45.52;;
36217;Laerm;22259;48.792;8.964;2023-02-23T01:39:44;41.45;38.78;44.89;;
36217;Laerm;22259;48.792;8.964;2023-02-23T01:42:11;41.44;38.88;45.38;;
36217;Laerm;22259;48.792;8.964;2023-02-23T01:47:24;42.05;39.67;45.36;;
36217;Laerm;22259;48.792;8.964;2023-02-23T01:49:50;42.05;39.40;45.01;;
36217;Laerm;22259;48.792;8.964;2023-02-23T01:52:16;41.15;37.66;44.53;;
36217;Laerm;22259;48.792;8.964;2023-02-23T01:54:43;45.36;39.18;58.80;;
36217;Laerm;22259;48.792;8.964;2023-02-23T01:57:14;41.72;38.85;44.68;;
36217;Laerm;22259;48.792;8.964;2023-02-23T01:59:42;40.81;37.07;45.15;;
36217;Laerm;22259;48.792;8.964;2023-02-23T02:02:08;40.78;38.17;44.74;;
36217;Laerm;22259;48.792;8.964;2023-02-23T02:04:34;39.89;36.74;43.34;;
36217;Laerm;22259;48.792;8.964;2023-02-23T02:07:09;41.55;37.66;44.84;;
36217;Laerm;22259;48.792;8.964;2023-02-23T02:09:34;42.78;39.89;44.75;;
36217;Laerm;22259;48.792;8.964;2023-02-23T02:12:02;43.29;40.05;47.50;;
36217;Laerm;22259;48.792;8.964;2023-02-23T02:14:32;42.82;40.13;46.78;;
36217;Laerm;22259;48.792;8.964;2023-02-23T02:17:18;42.12;39.05;44.63;;
36217;Laerm;22259;48.792;8.964;2023-02-23T02:19:58;41.77;39.28;44.11;;
36217;Laerm;22259;48.792;8.964;2023-02-23T02:30:24;42.31;39.46;46.70;;
36217;Laerm;22259;48.792;8.964;2023-02-23T02:33:03;42.22;39.31;44.51;;
36217;Laerm;22259;48.792;8.964;2023-02-23T02:39:32;42.38;39.25;45.03;;
36217;Laerm;22259;48.792;8.964;2023-02-23T02:47:10;42.23;39.25;45.38;;
36217;Laerm;22259;48.792;8.964;2023-02-23T02:49:39;41.97;38.67;44.20;;
36217;Laerm;22259;48.792;8.964;2023-02-23T02:52:17;41.56;38.78;44.87;;
36217;Laerm;22259;48.792;8.964;2023-02-23T02:54:48;41.99;39.18;44.38;;
36217;Laerm;22259;48.792;8.964;2023-02-23T02:57:17;42.19;39.58;45.07;;
36217;Laerm;22259;48.792;8.964;2023-02-23T02:59:45;41.39;38.52;44.00;;
36217;Laerm;22259;48.792;8.964;2023-02-23T03:02:30;41.25;38.78;44.16;;
36217;Laerm;22259;48.792;8.964;2023-02-23T03:05:16;41.49;39.12;45.93;;
36217;Laerm;22259;48.792;8.964;2023-02-23T03:08:07;41.86;39.34;44.93;;
36217;Laerm;22259;48.792;8.964;2023-02-23T03:14:16;41.31;37.92;43.65;;
36217;Laerm;22259;48.792;8.964;2023-02-23T03:18:12;41.21;38.41;44.41;;
36217;Laerm;22259;48.792;8.964;2023-02-23T03:21:01;41.50;38.57;45.65;;
36217;Laerm;22259;48.792;8.964;2023-02-23T03:23:52;41.83;38.78;44.14;;
36217;Laerm;22259;48.792;8.964;2023-02-23T03:27:44;41.58;38.98;43.56;;
36217;Laerm;22259;48.792;8.964;2023-02-23T03:30:41;41.67;38.92;45.59;;
36217;Laerm;22259;48.792;8.964;2023-02-23T03:33:34;41.57;38.29;50.21;;
36217;Laerm;22259;48.792;8.964;2023-02-23T03:36:21;41.32;38.74;49.78;;
36217;Laerm;22259;48.792;8.964;2023-02-23T03:39:13;41.99;39.64;45.14;;
36217;Laerm;22259;48.792;8.964;2023-02-23T03:42:01;41.69;39.02;45.67;;
36217;Laerm;22259;48.792;8.964;2023-02-23T03:44:47;42.20;39.21;63.48;;
36217;Laerm;22259;48.792;8.964;2023-02-23T03:47:32;41.80;39.31;43.71;;
36217;Laerm;22259;48.792;8.964;2023-02-23T03:50:29;41.90;39.55;51.15;;
36217;Laerm;22259;48.792;8.964;2023-02-23T03:53:16;42.26;39.78;46.79;;
36217;Laerm;22259;48.792;8.964;2023-02-23T03:56:02;42.26;39.46;56.46;;
36217;Laerm;22259;48.792;8.964;2023-02-23T03:58:48;42.50;40.05;45.65;;
36217;Laerm;22259;48.792;8.964;2023-02-23T04:01:33;51.51;39.78;68.76;;
36217;Laerm;22259;48.792;8.964;2023-02-23T04:04:18;42.55;40.23;51.93;;
36217;Laerm;22259;48.792;8.964;2023-02-23T04:07:03;42.59;40.43;45.38;;
36217;Laerm;22259;48.792;8.964;2023-02-23T04:09:50;42.30;39.73;45.62;;
36217;Laerm;22259;48.792;8.964;2023-02-23T04:16:01;42.75;39.97;45.45;;
36217;Laerm;22259;48.792;8.964;2023-02-23T04:18:29;42.55;40.55;47.54;;
36217;Laerm;22259;48.792;8.964;2023-02-23T04:20:55;52.74;40.53;71.03;;
36217;Laerm;22259;48.792;8.964;2023-02-23T04:23:20;43.05;40.48;58.80;;
36217;Laerm;22259;48.792;8.964;2023-02-23T04:25:47;42.61;40.71;50.62;;
36217;Laerm;22259;48.792;8.964;2023-02-23T04:28:13;43.73;40.36;66.26;;
36217;Laerm;22259;48.792;8.964;2023-02-23T04:30:38;53.39;40.03;68.87;;
36217;Laerm;22259;48.792;8.964;2023-02-23T04:33:05;42.09;39.87;45.32;;
36217;Laerm;22259;48.792;8.964;2023-02-23T04:35:31;47.63;40.33;69.27;;
36217;Laerm;22259;48.792;8.964;2023-02-23T04:37:57;42.57;39.95;49.01;;
36217;Laerm;22259;48.792;8.964;2023-02-23T04:40:22;42.87;40.38;49.52;;
36217;Laerm;22259;48.792;8.964;2023-02-23T04:42:49;43.59;41.00;58.65;;
36217;Laerm;22259;48.792;8.964;2023-02-23T04:45:14;43.02;40.67;53.92;;
36217;Laerm;22259;48.792;8.964;2023-02-23T04:47:40;42.88;40.69;57.82;;
36217;Laerm;22259;48.792;8.964;2023-02-23T04:50:05;53.24;40.16;67.97;;
36217;Laerm;22259;48.792;8.964;2023-02-23T04:52:31;42.56;39.70;49.63;;
36217;Laerm;22259;48.792;8.964;2023-02-23T04:54:56;44.58;39.73;65.00;;
36217;Laerm;22259;48.792;8.964;2023-02-23T04:57:22;42.40;40.03;58.84;;
36217;Laerm;22259;48.792;8.964;2023-02-23T04:59:47;42.55;40.33;50.50;;
36217;Laerm;22259;48.792;8.964;2023-02-23T05:02:13;52.85;40.26;70.95;;
36217;Laerm;22259;48.792;8.964;2023-02-23T05:04:38;45.37;40.23;66.12;;
36217;Laerm;22259;48.792;8.964;2023-02-23T05:07:03;42.70;39.89;62.26;;
36217;Laerm;22259;48.792;8.964;2023-02-23T05:09:29;42.41;40.13;51.52;;
36217;Laerm;22259;48.792;8.964;2023-02-23T05:11:55;42.39;39.57;55.17;;
36217;Laerm;22259;48.792;8.964;2023-02-23T05:14:20;43.19;40.33;55.58;;
36217;Laerm;22259;48.792;8.964;2023-02-23T05:16:46;44.94;41.51;55.42;;
36217;Laerm;22259;48.792;8.964;2023-02-23T05:19:11;43.16;41.20;57.73;;
36217;Laerm;22259;48.792;8.964;2023-02-23T05:21:36;55.51;41.70;72.39;;
36217;Laerm;22259;48.792;8.964;2023-02-23T05:24:03;58.62;41.84;75.59;;
36217;Laerm;22259;48.792;8.964;2023-02-23T05:26:28;43.37;41.22;58.48;;
36217;Laerm;22259;48.792;8.964;2023-02-23T05:28:54;44.04;41.64;52.32;;
36217;Laerm;22259;48.792;8.964;2023-02-23T05:31:21;53.40;41.16;70.03;;
36217;Laerm;22259;48.792;8.964;2023-02-23T05:33:46;43.10;40.73;54.82;;
36217;Laerm;22259;48.792;8.964;2023-02-23T05:36:12;43.07;40.87;50.87;;
36217;Laerm;22259;48.792;8.964;2023-02-23T05:38:38;43.07;41.06;53.74;;
36217;Laerm;22259;48.792;8.964;2023-02-23T05:41:04;43.33;40.97;52.97;;
36217;Laerm;22259;48.792;8.964;2023-02-23T05:43:30;43.26;40.89;53.81;;
36217;Laerm;22259;48.792;8.964;2023-02-23T05:45:55;43.42;41.28;55.82;;
36217;Laerm;22259;48.792;8.964;2023-02-23T05:48:20;43.45;41.24;51.28;;
36217;Laerm;22259;48.792;8.964;2023-02-23T05:50:46;52.98;40.93;68.31;;
36217;Laerm;22259;48.792;8.964;2023-02-23T05:53:12;43.33;41.40;47.14;;
36217;Laerm;22259;48.792;8.964;2023-02-23T05:55:37;43.78;41.79;51.76;;
36217;Laerm;22259;48.792;8.964;2023-02-23T05:58:02;43.74;41.48;59.05;;
36217;Laerm;22259;48.792;8.964;2023-02-23T06:00:28;52.21;41.75;69.12;;
36217;Laerm;22259;48.792;8.964;2023-02-23T06:02:53;43.63;41.59;51.28;;
36217;Laerm;22259;48.792;8.964;2023-02-23T06:05:19;44.00;41.99;55.25;;
36217;Laerm;22259;48.792;8.964;2023-02-23T06:07:44;44.56;42.22;57.56;;
36217;Laerm;22259;48.792;8.964;2023-02-23T06:10:10;45.16;41.96;61.25;;
36217;Laerm;22259;48.792;8.964;2023-02-23T06:12:35;46.27;41.61;64.46;;
36217;Laerm;22259;48.792;8.964;2023-02-23T06:15:01;46.97;41.79;64.47;;
36217;Laerm;22259;48.792;8.964;2023-02-23T06:17:26;47.13;42.13;67.76;;
36217;Laerm;22259;48.792;8.964;2023-02-23T06:19:51;52.07;41.91;69.96;;
36217;Laerm;22259;48.792;8.964;2023-02-23T06:22:17;44.85;41.80;58.89;;
36217;Laerm;22259;48.792;8.964;2023-02-23T06:24:42;46.11;41.86;67.20;;
36217;Laerm;22259;48.792;8.964;2023-02-23T06:27:08;44.89;42.29;56.45;;
36217;Laerm;22259;48.792;8.964;2023-02-23T06:29:34;52.79;42.72;69.02;;
36217;Laerm;22259;48.792;8.964;2023-02-23T06:32:01;48.61;41.70;66.88;;
36217;Laerm;22259;48.792;8.964;2023-02-23T06:34:27;52.66;42.24;71.81;;
36217;Laerm;22259;48.792;8.964;2023-02-23T06:36:52;45.53;42.18;62.11;;
36217;Laerm;22259;48.792;8.964;2023-02-23T06:39:17;52.24;42.40;67.71;;
36217;Laerm;22259;48.792;8.964;2023-02-23T06:41:43;44.94;42.58;62.32;;
36217;Laerm;22259;48.792;8.964;2023-02-23T06:44:08;44.86;43.10;54.54;;
36217;Laerm;22259;48.792;8.964;2023-02-23T06:46:33;44.53;42.52;53.60;;
36217;Laerm;22259;48.792;8.964;2023-02-23T06:49:00;53.78;42.37;68.15;;
36217;Laerm;22259;48.792;8.964;2023-02-23T06:51:25;44.69;42.04;51.83;;
36217;Laerm;22259;48.792;8.964;2023-02-23T06:53:51;44.55;42.47;51.25;;
36217;Laerm;22259;48.792;8.964;2023-02-23T06:56:17;44.63;42.40;54.90;;
36217;Laerm;22259;48.792;8.964;2023-02-23T06:58:43;45.58;42.72;53.07;;
36217;Laerm;22259;48.792;8.964;2023-02-23T07:01:08;54.60;43.17;69.20;;
36217;Laerm;22259;48.792;8.964;2023-02-23T07:03:34;44.60;42.35;52.16;;
36217;Laerm;22259;48.792;8.964;2023-02-23T07:05:59;45.96;42.83;61.54;;
36217;Laerm;22259;48.792;8.964;2023-02-23T07:08:24;44.59;42.40;54.81;;
36217;Laerm;22259;48.792;8.964;2023-02-23T07:10:50;45.01;42.75;55.47;;
36217;Laerm;22259;48.792;8.964;2023-02-23T07:13:15;45.43;42.44;63.32;;
36217;Laerm;22259;48.792;8.964;2023-02-23T07:15:41;47.68;42.47;65.07;;
36217;Laerm;22259;48.792;8.964;2023-02-23T07:18:06;44.46;42.44;51.45;;
36217;Laerm;22259;48.792;8.964;2023-02-23T07:20:32;53.09;42.55;71.98;;
36217;Laerm;22259;48.792;8.964;2023-02-23T07:22:58;45.55;43.18;55.65;;
36217;Laerm;22259;48.792;8.964;2023-02-23T07:25:25;46.67;43.32;66.25;;
36217;Laerm;22259;48.792;8.964;2023-02-23T07:27:50;47.01;43.37;62.78;;
36217;Laerm;22259;48.792;8.964;2023-02-23T07:30:18;53.65;42.44;69.04;;
36217;Laerm;22259;48.792;8.964;2023-02-23T07:32:43;46.42;42.96;61.30;;
36217;Laerm;22259;48.792;8.964;2023-02-23T07:35:09;45.49;42.92;56.73;;
36217;Laerm;22259;48.792;8.964;2023-02-23T07:37:34;45.04;43.08;50.17;;
36217;Laerm;22259;48.792;8.964;2023-02-23T07:39:59;44.88;42.33;50.10;;
36217;Laerm;22259;48.792;8.964;2023-02-23T07:42:25;44.45;42.14;56.04;;
36217;Laerm;22259;48.792;8.964;2023-02-23T07:44:50;43.97;42.21;48.20;;
36217;Laerm;22259;48.792;8.964;2023-02-23T07:47:16;44.84;42.03;56.99;;
36217;Laerm;22259;48.792;8.964;2023-02-23T07:49:41;53.27;42.27;68.10;;
36217;Laerm;22259;48.792;8.964;2023-02-23T07:52:07;44.11;42.27;50.99;;
36217;Laerm;22259;48.792;8.964;2023-02-23T07:54:32;43.81;41.51;47.37;;
36217;Laerm;22259;48.792;8.964;2023-02-23T07:56:57;44.56;42.08;53.36;;
36217;Laerm;22259;48.792;8.964;2023-02-23T07:59:23;44.75;42.03;55.49;;
36217;Laerm;22259;48.792;8.964;2023-02-23T08:01:49;50.53;41.18;66.97;;
36217;Laerm;22259;48.792;8.964;2023-02-23T08:04:15;45.46;41.50;58.04;;
36217;Laerm;22259;48.792;8.964;2023-02-23T08:06:41;43.93;41.14;59.38;;
36217;Laerm;22259;48.792;8.964;2023-02-23T08:09:06;43.37;41.31;48.29;;
36217;Laerm;22259;48.792;8.964;2023-02-23T08:11:32;43.57;40.87;53.28;;
36217;Laerm;22259;48.792;8.964;2023-02-23T08:13:57;44.17;41.28;56.09;;
36217;Laerm;22259;48.792;8.964;2023-02-23T08:16:27;43.40;40.73;54.90;;
36217;Laerm;22259;48.792;8.964;2023-02-23T08:18:53;52.69;41.22;68.75;;
36217;Laerm;22259;48.792;8.964;2023-02-23T08:21:20;46.05;42.30;52.99;;
36217;Laerm;22259;48.792;8.964;2023-02-23T08:23:45;60.16;41.70;74.61;;
36217;Laerm;22259;48.792;8.964;2023-02-23T08:26:11;43.44;41.06;53.25;;
36217;Laerm;22259;48.792;8.964;2023-02-23T08:28:36;43.27;40.91;54.36;;
36217;Laerm;22259;48.792;8.964;2023-02-23T08:31:01;53.85;41.06;70.42;;
36217;Laerm;22259;48.792;8.964;2023-02-23T08:33:27;49.41;40.55;65.38;;
36217;Laerm;22259;48.792;8.964;2023-02-23T08:35:52;46.30;40.61;62.66;;
36217;Laerm;22259;48.792;8.964;2023-02-23T08:38:18;44.00;41.08;60.71;;
36217;Laerm;22259;48.792;8.964;2023-02-23T08:40:43;43.36;40.41;50.48;;
36217;Laerm;22259;48.792;8.964;2023-02-23T08:43:08;42.99;40.50;48.52;;
36217;Laerm;22259;48.792;8.964;2023-02-23T08:45:34;43.61;41.26;48.98;;
36217;Laerm;22259;48.792;8.964;2023-02-23T08:47:59;43.67;40.73;52.63;;
36217;Laerm;22259;48.792;8.964;2023-02-23T08:50:24;53.53;39.84;68.40;;
36217;Laerm;22259;48.792;8.964;2023-02-23T08:52:50;44.45;40.97;49.83;;
36217;Laerm;22259;48.792;8.964;2023-02-23T08:55:15;44.99;42.46;50.85;;
36217;Laerm;22259;48.792;8.964;2023-02-23T08:57:42;45.59;42.43;56.35;;
36217;Laerm;22259;48.792;8.964;2023-02-23T09:00:08;51.97;42.69;67.08;;
36217;Laerm;22259;48.792;8.964;2023-02-23T09:02:40;47.75;42.24;63.09;;
36217;Laerm;22259;48.792;8.964;2023-02-23T09:05:06;49.35;40.76;64.91;;
36217;Laerm;22259;48.792;8.964;2023-02-23T09:07:31;45.57;41.10;68.76;;
36217;Laerm;22259;48.792;8.964;2023-02-23T09:09:57;45.69;41.04;58.65;;
36217;Laerm;22259;48.792;8.964;2023-02-23T09:12:22;52.83;41.77;66.20;;
36217;Laerm;22259;48.792;8.964;2023-02-23T09:14:48;43.35;40.91;54.00;;
36217;Laerm;22259;48.792;8.964;2023-02-23T09:17:15;43.55;39.92;53.77;;
36217;Laerm;22259;48.792;8.964;2023-02-23T09:19:40;51.10;41.42;66.41;;
36217;Laerm;22259;48.792;8.964;2023-02-23T09:22:05;44.35;40.93;59.97;;
36217;Laerm;22259;48.792;8.964;2023-02-23T09:24:31;43.63;41.12;53.49;;
36217;Laerm;22259;48.792;8.964;2023-02-23T09:26:57;43.33;40.53;57.48;;
36217;Laerm;22259;48.792;8.964;2023-02-23T09:29:22;44.04;40.38;53.52;;
36217;Laerm;22259;48.792;8.964;2023-02-23T09:31:48;53.53;40.21;68.69;;
36217;Laerm;22259;48.792;8.964;2023-02-23T09:34:17;42.98;40.04;58.79;;
36217;Laerm;22259;48.792;8.964;2023-02-23T09:36:42;43.56;40.08;61.96;;
36217;Laerm;22259;48.792;8.964;2023-02-23T09:39:08;44.21;40.05;64.98;;
36217;Laerm;22259;48.792;8.964;2023-02-23T09:45:36;42.20;39.31;52.50;;
36217;Laerm;22259;48.792;8.964;2023-02-23T09:48:13;42.59;39.55;56.33;;
36217;Laerm;22259;48.792;8.964;2023-02-23T09:50:41;53.32;39.89;68.18;;
36217;Laerm;22259;48.792;8.964;2023-02-23T09:53:52;42.93;39.61;54.64;;
36217;Laerm;22259;48.792;8.964;2023-02-23T09:59:04;42.18;39.15;49.37;;
36217;Laerm;22259;48.792;8.964;2023-02-23T10:04:27;45.34;38.63;63.26;;
36217;Laerm;22259;48.792;8.964;2023-02-23T10:06:55;42.01;38.71;58.30;;
36217;Laerm;22259;48.792;8.964;2023-02-23T10:09:43;44.36;40.03;59.43;;
36217;Laerm;22259;48.792;8.964;2023-02-23T10:12:18;42.59;39.25;58.44;;
36217;Laerm;22259;48.792;8.964;2023-02-23T10:14:53;41.51;38.78;49.50;;
36217;Laerm;22259;48.792;8.964;2023-02-23T10:21:38;50.72;39.21;69.81;;
36217;Laerm;22259;48.792;8.964;2023-02-23T10:24:10;44.58;39.99;64.20;;
36217;Laerm;22259;48.792;8.964;2023-02-23T10:26:41;44.58;40.13;53.14;;
36217;Laerm;22259;48.792;8.964;2023-02-23T10:29:17;44.77;41.22;52.51;;
36217;Laerm;22259;48.792;8.964;2023-02-23T10:31:44;53.57;41.18;69.97;;
36217;Laerm;22259;48.792;8.964;2023-02-23T10:34:12;45.16;42.13;54.05;;
36217;Laerm;22259;48.792;8.964;2023-02-23T10:36:41;44.09;37.96;52.17;;
36217;Laerm;22259;48.792;8.964;2023-02-23T10:39:07;46.06;38.92;59.94;;
36217;Laerm;22259;48.792;8.964;2023-02-23T10:41:33;41.99;38.52;49.14;;
36217;Laerm;22259;48.792;8.964;2023-02-23T10:43:59;41.31;37.92;57.76;;
36217;Laerm;22259;48.792;8.964;2023-02-23T10:46:26;41.22;38.25;55.77;;
36217;Laerm;22259;48.792;8.964;2023-02-23T10:48:55;43.83;39.08;60.76;;
36217;Laerm;22259;48.792;8.964;2023-02-23T10:51:25;46.81;40.23;63.35;;
36217;Laerm;22259;48.792;8.964;2023-02-23T10:53:52;45.60;38.99;64.74;;
36217;Laerm;22259;48.792;8.964;2023-02-23T10:56:17;41.67;38.49;56.74;;
36217;Laerm;22259;48.792;8.964;2023-02-23T10:58:52;41.47;38.25;57.39;;
36217;Laerm;22259;48.792;8.964;2023-02-23T11:01:38;40.89;38.52;48.87;;
36217;Laerm;22259;48.792;8.964;2023-02-23T11:04:17;50.67;38.09;66.65;;
36217;Laerm;22259;48.792;8.964;2023-02-23T11:06:46;41.27;38.09;47.83;;
36217;Laerm;22259;48.792;8.964;2023-02-23T11:09:21;42.71;38.81;59.05;;
36217;Laerm;22259;48.792;8.964;2023-02-23T11:11:55;41.10;38.67;46.43;;
36217;Laerm;22259;48.792;8.964;2023-02-23T11:14:22;51.81;37.66;69.23;;
36217;Laerm;22259;48.792;8.964;2023-02-23T11:16:48;40.87;38.29;49.96;;
36217;Laerm;22259;48.792;8.964;2023-02-23T11:19:26;40.87;37.96;55.63;;
36217;Laerm;22259;48.792;8.964;2023-02-23T11:21:53;52.96;37.83;71.47;;
36217;Laerm;22259;48.792;8.964;2023-02-23T11:24:26;40.91;38.41;45.95;;
36217;Laerm;22259;48.792;8.964;2023-02-23T11:26:55;40.89;38.33;47.67;;
36217;Laerm;22259;48.792;8.964;2023-02-23T11:29:31;40.71;37.75;51.10;;
36217;Laerm;22259;48.792;8.964;2023-02-23T11:31:57;44.89;38.67;64.25;;
36217;Laerm;22259;48.792;8.964;2023-02-23T11:34:31;54.36;38.81;70.49;;
36217;Laerm;22259;48.792;8.964;2023-02-23T11:36:58;41.84;38.25;54.37;;
36217;Laerm;22259;48.792;8.964;2023-02-23T11:39:24;44.08;38.78;59.32;;
36217;Laerm;22259;48.792;8.964;2023-02-23T11:42:11;43.02;39.15;56.12;;
36217;Laerm;22259;48.792;8.964;2023-02-23T11:44:37;42.29;38.88;52.54;;
36217;Laerm;22259;48.792;8.964;2023-02-23T11:47:02;42.17;38.71;57.88;;
36217;Laerm;22259;48.792;8.964;2023-02-23T11:49:31;53.85;38.45;69.73;;
36217;Laerm;22259;48.792;8.964;2023-02-23T11:51:59;41.31;38.78;48.24;;
36217;Laerm;22259;48.792;8.964;2023-02-23T11:54:31;41.58;38.45;56.66;;
36217;Laerm;22259;48.792;8.964;2023-02-23T11:56:57;41.04;37.70;52.20;;
36217;Laerm;22259;48.792;8.964;2023-02-23T11:59:30;41.36;38.41;54.96;;
36217;Laerm;22259;48.792;8.964;2023-02-23T12:04:43;41.59;38.85;51.14;;
36217;Laerm;22259;48.792;8.964;2023-02-23T12:07:45;41.97;39.37;49.82;;
36217;Laerm;22259;48.792;8.964;2023-02-23T12:10:19;41.97;39.28;54.12;;
36217;Laerm;22259;48.792;8.964;2023-02-23T12:16:49;48.06;39.55;65.25;;
36217;Laerm;22259;48.792;8.964;2023-02-23T12:19:27;48.91;39.40;64.63;;
36217;Laerm;22259;48.792;8.964;2023-02-23T12:22:03;46.86;40.16;63.56;;
36217;Laerm;22259;48.792;8.964;2023-02-23T12:24:38;45.45;38.88;65.04;;
36217;Laerm;22259;48.792;8.964;2023-02-23T12:27:17;45.59;39.46;67.64;;
36217;Laerm;22259;48.792;8.964;2023-02-23T12:35:20;45.34;38.71;66.06;;
36217;Laerm;22259;48.792;8.964;2023-02-23T12:37:55;42.60;39.70;47.43;;
36217;Laerm;22259;48.792;8.964;2023-02-23T12:40:26;43.30;40.97;50.70;;
36217;Laerm;22259;48.792;8.964;2023-02-23T12:43:06;43.38;40.55;63.44;;
36217;Laerm;22259;48.792;8.964;2023-02-23T12:51:04;47.93;40.62;68.30;;
36217;Laerm;22259;48.792;8.964;2023-02-23T12:53:37;43.55;39.95;57.30;;
36217;Laerm;22259;48.792;8.964;2023-02-23T12:56:10;43.00;39.43;62.97;;
36217;Laerm;22259;48.792;8.964;2023-02-23T12:58:48;43.05;39.55;56.71;;
36217;Laerm;22259;48.792;8.964;2023-02-23T13:01:28;52.44;39.58;69.93;;
36217;Laerm;22259;48.792;8.964;2023-02-23T13:04:31;42.49;39.95;47.82;;
36217;Laerm;22259;48.792;8.964;2023-02-23T13:07:15;43.95;39.73;68.52;;
36217;Laerm;22259;48.792;8.964;2023-02-23T13:15:12;42.46;39.46;54.92;;
36217;Laerm;22259;48.792;8.964;2023-02-23T13:17:45;41.94;39.40;49.52;;
36217;Laerm;22259;48.792;8.964;2023-02-23T13:20:21;52.65;39.28;68.40;;
36217;Laerm;22259;48.792;8.964;2023-02-23T13:25:39;41.85;39.34;62.07;;
36217;Laerm;22259;48.792;8.964;2023-02-23T13:28:07;45.07;39.52;54.19;;
36217;Laerm;22259;48.792;8.964;2023-02-23T13:30:38;54.63;39.78;71.26;;
36217;Laerm;22259;48.792;8.964;2023-02-23T13:33:13;43.15;40.13;54.72;;
36217;Laerm;22259;48.792;8.964;2023-02-23T13:35:41;43.35;39.46;57.86;;
36217;Laerm;22259;48.792;8.964;2023-02-23T13:38:10;42.64;39.43;52.87;;
36217;Laerm;22259;48.792;8.964;2023-02-23T13:40:49;41.67;38.92;46.99;;
36217;Laerm;22259;48.792;8.964;2023-02-23T13:44:21;45.05;38.88;53.91;;
36217;Laerm;22259;48.792;8.964;2023-02-23T13:46:52;46.64;40.00;59.45;;
36217;Laerm;22259;48.792;8.964;2023-02-23T13:49:35;52.98;39.18;68.86;;
36217;Laerm;22259;48.792;8.964;2023-02-23T13:52:27;42.50;38.92;61.15;;
36217;Laerm;22259;48.792;8.964;2023-02-23T13:54:55;43.09;39.34;60.11;;
36217;Laerm;22259;48.792;8.964;2023-02-23T13:57:21;41.88;38.25;58.60;;
36217;Laerm;22259;48.792;8.964;2023-02-23T13:59:47;52.76;38.93;68.70;;
36217;Laerm;22259;48.792;8.964;2023-02-23T14:05:17;42.18;38.71;54.23;;
36217;Laerm;22259;48.792;8.964;2023-02-23T14:07:43;41.96;38.67;49.40;;
36217;Laerm;22259;48.792;8.964;2023-02-23T14:10:26;42.19;39.21;51.29;;
36217;Laerm;22259;48.792;8.964;2023-02-23T14:16:18;43.18;40.16;62.97;;
36217;Laerm;22259;48.792;8.964;2023-02-23T14:21:46;52.07;41.10;67.43;;
36217;Laerm;22259;48.792;8.964;2023-02-23T14:24:16;44.79;39.78;61.82;;
36217;Laerm;22259;48.792;8.964;2023-02-23T14:26:43;44.99;39.75;62.34;;
36217;Laerm;22259;48.792;8.964;2023-02-23T14:29:42;43.64;39.52;59.10;;
36217;Laerm;22259;48.792;8.964;2023-02-23T14:32:26;52.64;39.08;69.19;;
36217;Laerm;22259;48.792;8.964;2023-02-23T14:34:54;42.58;39.89;53.55;;
36217;Laerm;22259;48.792;8.964;2023-02-23T14:37:30;46.96;40.54;59.77;;
36217;Laerm;22259;48.792;8.964;2023-02-23T14:40:00;44.02;41.24;52.36;;
36217;Laerm;22259;48.792;8.964;2023-02-23T14:42:26;42.86;40.16;53.73;;
36217;Laerm;22259;48.792;8.964;2023-02-23T14:44:54;42.22;39.75;51.45;;
36217;Laerm;22259;48.792;8.964;2023-02-23T14:47:21;42.22;39.61;57.26;;
36217;Laerm;22259;48.792;8.964;2023-02-23T14:49:48;52.79;39.87;69.36;;
36217;Laerm;22259;48.792;8.964;2023-02-23T14:52:20;43.08;39.67;63.27;;
36217;Laerm;22259;48.792;8.964;2023-02-23T14:54:46;43.07;39.28;60.67;;
36217;Laerm;22259;48.792;8.964;2023-02-23T14:57:19;42.30;39.46;55.65;;
36217;Laerm;22259;48.792;8.964;2023-02-23T14:59:50;51.80;40.21;68.14;;
36217;Laerm;22259;48.792;8.964;2023-02-23T15:02:20;44.62;40.26;55.50;;
36217;Laerm;22259;48.792;8.964;2023-02-23T15:04:46;44.00;39.02;64.40;;
36217;Laerm;22259;48.792;8.964;2023-02-23T15:07:29;42.45;39.55;54.59;;
36217;Laerm;22259;48.792;8.964;2023-02-23T15:09:56;42.41;39.67;53.00;;
36217;Laerm;22259;48.792;8.964;2023-02-23T15:12:23;43.60;40.05;53.30;;
36217;Laerm;22259;48.792;8.964;2023-02-23T15:14:54;42.39;39.89;47.64;;
36217;Laerm;22259;48.792;8.964;2023-02-23T15:17:21;42.00;39.61;51.55;;
36217;Laerm;22259;48.792;8.964;2023-02-23T15:19:49;52.34;39.35;69.33;;